Hartford City, IN (47348)

9:26 PM EDT on August 27, 2016 (GMT -0400)
WB9HLA-1 | | Change Station

Elev 918 ft 40.46 °N, 85.37 °W | Updated 5 days ago

Partly Cloudy
Partly Cloudy
75 °F
Feels Like 75 °F
N
2
Wind Variable Wind from SSW
Gusts mph

Today
High -- | Low -- °F
--% Chance of Precip.
Yesterday
High -- | Low -- °F
Precip. -- in
Pressure 30.09 in
Visibility 10.0 miles
Clouds Clear
Dew Point 71 °F
Humidity 87%
Rainfall in
Snow Depth Not available.
7:04 AM 8:20 PM
Waning Crescent, 20% visible
METAR KMIE 280053Z 00000KT 10SM CLR 24/22 A3012 RMK AO2 SLP188 T02440222
Pressure 30.09 in
Visibility 10.0 miles
Clouds Clear
Dew Point 71 °F
Humidity 87%
Rainfall in
Snow Depth Not available.
7:04 AM 8:20 PM
Waning Crescent, 20% visible
METAR KMIE 280053Z 00000KT 10SM CLR 24/22 A3012 RMK AO2 SLP188 T02440222

10-Day Weather Forecast

Almanac

Astronomy

Aug. 27, 2016 Rise Set
Actual Time
Civil Twilight
Nautical Twilight
Astronomical Twilight
Moon
Length of Visible Light
Length of Day
Tomorrow will be .
, % of the Moon is Illuminated

Today's Extremes

State Highs State Lows

Community

WunderPhotos

Upload Photos

1,935,486 photos uploaded!

WunderBlog® & News

Nearby

Air Quality

  Air Quality AQ Index Pollutant
Not available.

Snow Depth

Station Depth Elevation

Earthquake Activity

City Distance Mag. Time & Date
Minimum magnitude displayed is 2.5.

Coastal Water Temperatures

Place Temperature

Stations

Nearby Weather Stations

Station Location Temp. Windchill Dew Point Humidity Wind Precip. Elev Updated Type
                   

Watches & Warnings

There are currently no watches in effect.